sensor_id;sensor_type;location;lat;lon;timestamp;pressure;altitude;pressure_sealevel;temperature;humidity
46382;BME280;66809;52.974;-2.514;2023-07-16T00:01:42;990.5553293438122;;;13.498719476240554;42.76597166836407
46382;BME280;66809;52.974;-2.514;2023-07-16T00:03:41;990.5735662930897;;;13.484948022546678;42.76279047880133
46382;BME280;66809;52.974;-2.514;2023-07-16T00:05:41;990.5917554660208;;;13.47604153306584;42.76100086276854
46382;BME280;66809;52.974;-2.514;2023-07-16T00:07:42;990.6087283904506;;;13.469048555753004;42.75230071745064
46382;BME280;66809;52.974;-2.514;2023-07-16T00:09:42;990.6242221343172;;;13.469159515433663;42.75740452871258
46382;BME280;66809;52.974;-2.514;2023-07-16T00:11:41;990.6413392827927;;;13.460250814595652;42.759156621911856
46382;BME280;66809;52.974;-2.514;2023-07-16T00:13:42;990.6586474495278;;;13.451380166086354;42.76842117615154
46382;BME280;66809;52.974;-2.514;2023-07-16T00:15:42;990.6718485686719;;;13.451159482254775;42.754109831370556
46382;BME280;66809;52.974;-2.514;2023-07-16T00:17:41;990.685553863372;;;13.440692387125662;42.76120216134915
46382;BME280;66809;52.974;-2.514;2023-07-16T00:19:42;990.698750532393;;;13.429241525178378;42.78230907335493
46382;BME280;66809;52.974;-2.514;2023-07-16T00:21:42;990.7110887087007;;;13.429132294742795;42.78783251235777
46382;BME280;66809;52.974;-2.514;2023-07-16T00:23:41;990.7273598996101;;;13.43218852509262;42.78546269221538
46382;BME280;66809;52.974;-2.514;2023-07-16T00:25:42;990.7460478768891;;;13.431003795821333;42.786446845942734
46382;BME280;66809;52.974;-2.514;2023-07-16T00:27:41;990.7648517321585;;;13.43737673074717;42.78249666545283
46382;BME280;66809;52.974;-2.514;2023-07-16T00:29:42;990.7842997159773;;;13.444055067607712;42.80013881594568
46382;BME280;66809;52.974;-2.514;2023-07-16T00:31:42;990.8039133087862;;;13.447833899618352;42.807630143509
46382;BME280;66809;52.974;-2.514;2023-07-16T00:33:41;990.8235951926541;;;13.450094128062643;42.81305922968651
46382;BME280;66809;52.974;-2.514;2023-07-16T00:35:47;990.8471510078535;;;13.453188411841607;42.819191775349424
46382;BME280;66809;52.974;-2.514;2023-07-16T00:37:41;990.8707734769906;;;13.461853454427615;42.828786190826904
46382;BME280;66809;52.974;-2.514;2023-07-16T00:39:42;990.8925210223686;;;13.481851025257647;42.813534738037745
46382;BME280;66809;52.974;-2.514;2023-07-16T00:41:42;990.9151685891133;;;13.489535208407489;42.787721277772455
46382;BME280;66809;52.974;-2.514;2023-07-16T00:43:41;990.9343179439564;;;13.503693157609865;42.76624462593741
46382;BME280;66809;52.974;-2.514;2023-07-16T00:45:45;990.9544452040542;;;13.52192623714737;42.749911507701135
46382;BME280;66809;52.974;-2.514;2023-07-16T00:47:42;990.9745159940449;;;13.532792684828966;42.72824503448884
46382;BME280;66809;52.974;-2.514;2023-07-16T00:49:42;990.9958026781969;;;13.536704218801829;42.70973008278416
46382;BME280;66809;52.974;-2.514;2023-07-16T00:51:42;991.0191134893855;;;13.542588090699786;42.710634689742605
46382;BME280;66809;52.974;-2.514;2023-07-16T00:53:42;991.0420980940846;;;13.550017986947184;42.720122310221754
46382;BME280;66809;52.974;-2.514;2023-07-16T00:55:42;991.0632733376111;;;13.556691667210385;42.717578247302804
46382;BME280;66809;52.974;-2.514;2023-07-16T00:57:42;991.085101129877;;;13.570505112875841;42.72717129799419
46382;BME280;66809;52.974;-2.514;2023-07-16T00:59:42;991.1077601903165;;;13.579506243817006;42.722957797933645
46382;BME280;66809;52.974;-2.514;2023-07-16T01:01:42;991.1299648315169;;;13.583953307476833;42.71843587921929
46382;BME280;66809;52.974;-2.514;2023-07-16T01:03:42;991.1518464210336;;;13.58907873709587;42.72219327955006
46382;BME280;66809;52.974;-2.514;2023-07-16T01:05:47;991.1713260460482;;;13.593901683069932;42.73344719748163
46382;BME280;66809;52.974;-2.514;2023-07-16T01:07:49;991.1920765571004;;;13.599917758993968;42.74134790722506
46382;BME280;66809;52.974;-2.514;2023-07-16T01:09:42;991.2141125332445;;;13.605423513962217;42.739591693911635
46382;BME280;66809;52.974;-2.514;2023-07-16T01:11:42;991.235120662678;;;13.619915323211453;42.73378814539526
46382;BME280;66809;52.974;-2.514;2023-07-16T01:13:43;991.2571120155607;;;13.628290233529485;42.73073728836365
46382;BME280;66809;52.974;-2.514;2023-07-16T01:15:42;991.2813127492713;;;13.626124651640914;42.74356417936358
46382;BME280;66809;52.974;-2.514;2023-07-16T01:17:42;991.3031797529206;;;13.631718387823975;42.746425856759814
46382;BME280;66809;52.974;-2.514;2023-07-16T01:19:41;991.3277996574144;;;13.632550219533831;42.75145759658223
46382;BME280;66809;52.974;-2.514;2023-07-16T01:21:48;991.3507830237761;;;13.62635373728946;42.761228972112626
46382;BME280;66809;52.974;-2.514;2023-07-16T01:24:00;991.3710688475451;;;13.634377973749958;42.773572767038125
46382;BME280;66809;52.974;-2.514;2023-07-16T01:27:04;991.3932590250885;;;13.63947201735427;42.783554643017816
46382;BME280;66809;52.974;-2.514;2023-07-16T01:27:57;991.4167574965893;;;13.643097871993161;42.78614384884703
46382;BME280;66809;52.974;-2.514;2023-07-16T01:29:44;991.4393783721226;;;13.641236301471077;42.773451662068744
46382;BME280;66809;52.974;-2.514;2023-07-16T01:31:43;991.4597063936584;;;13.655831173793713;42.75947600618977
46382;BME280;66809;52.974;-2.514;2023-07-16T01:33:42;991.4821480443932;;;13.66814061485173;42.747661155676305
46382;BME280;66809;52.974;-2.514;2023-07-16T01:35:42;991.5021694763748;;;13.672350193624936;42.72211693196436
46382;BME280;66809;52.974;-2.514;2023-07-16T01:37:42;991.5234876459747;;;13.654006142566752;42.713426617444526
46382;BME280;66809;52.974;-2.514;2023-07-16T01:39:42;991.5445621920229;;;13.64511868165863;42.704836029066435
46382;BME280;66809;52.974;-2.514;2023-07-16T01:41:42;991.56415762607;;;13.640791470571902;42.722392278690705
46382;BME280;66809;52.974;-2.514;2023-07-16T01:43:41;991.587098642341;;;13.635993727522594;42.74162256301413
46382;BME280;66809;52.974;-2.514;2023-07-16T01:45:42;991.6101316904368;;;13.644231976645314;42.74971084268281
46382;BME280;66809;52.974;-2.514;2023-07-16T01:47:50;991.6328023131556;;;13.645492329563906;42.75523820984185
46382;BME280;66809;52.974;-2.514;2023-07-16T01:49:42;991.6565169529914;;;13.64422580497863;42.75445436252689
46382;BME280;66809;52.974;-2.514;2023-07-16T01:51:42;991.67887180221;;;13.64756994498391;42.74893210649636
46382;BME280;66809;52.974;-2.514;2023-07-16T01:53:41;991.7042370118901;;;13.654686744427387;42.74153986828138
46382;BME280;66809;52.974;-2.514;2023-07-16T01:55:42;991.732024033256;;;13.661744723992092;42.73513671983043
46382;BME280;66809;52.974;-2.514;2023-07-16T01:57:41;991.7596708497507;;;13.66885311866962;42.726663546748206
46382;BME280;66809;52.974;-2.514;2023-07-16T01:59:42;991.7859829880096;;;13.675642225525275;42.71354920519866
46382;BME280;66809;52.974;-2.514;2023-07-16T02:01:42;991.8125606253401;;;13.680719483598018;42.70773968421415
46382;BME280;66809;52.974;-2.514;2023-07-16T02:03:41;991.8397038743896;;;13.691087992542519;42.694532696002526
46382;BME280;66809;52.974;-2.514;2023-07-16T02:05:42;991.8679715247038;;;13.698935793171735;42.6854689475357
46382;BME280;66809;52.974;-2.514;2023-07-16T02:07:41;991.8950817190151;;;13.699242739240058;42.67324753380039
46382;BME280;66809;52.974;-2.514;2023-07-16T02:09:42;991.9228742976655;;;13.700454908575763;42.6631918856827
46382;BME280;66809;52.974;-2.514;2023-07-16T02:11:42;991.950489272405;;;13.69633380933729;42.6594511053262
46382;BME280;66809;52.974;-2.514;2023-07-16T02:13:41;991.9799120548109;;;13.695983136178432;42.66202377393453
46382;BME280;66809;52.974;-2.514;2023-07-16T02:15:42;992.0091634313255;;;13.706063726238911;42.659271475212385
46382;BME280;66809;52.974;-2.514;2023-07-16T02:17:42;992.0389285059775;;;13.706838965957068;42.658394272508374
46382;BME280;66809;52.974;-2.514;2023-07-16T02:19:42;992.0694603934704;;;13.709771383726267;42.655441728935244
46382;BME280;66809;52.974;-2.514;2023-07-16T02:21:41;992.1011923863574;;;13.717583340533901;42.646273470625175
46382;BME280;66809;52.974;-2.514;2023-07-16T02:23:42;992.132725579749;;;13.717776594550648;42.643018353981184
46382;BME280;66809;52.974;-2.514;2023-07-16T02:25:42;992.1619261115252;;;13.717885825124565;42.640058923296195
46382;BME280;66809;52.974;-2.514;2023-07-16T02:27:42;992.1916852198841;;;13.721479802954386;42.64341092681003
46382;BME280;66809;52.974;-2.514;2023-07-16T02:29:42;992.2223311922054;;;13.727342415938642;42.65318020705778
46382;BME280;66809;52.974;-2.514;2023-07-16T02:31:41;992.2534983486551;;;13.72311826203392;42.66393653661723
46382;BME280;66809;52.974;-2.514;2023-07-16T02:33:42;992.2847375853785;;;13.723538380039633;42.66245684565511
46382;BME280;66809;52.974;-2.514;2023-07-16T02:35:46;992.3156713228566;;;13.723613999906865;42.677848920254256
46382;BME280;66809;52.974;-2.514;2023-07-16T02:37:41;992.3450891036572;;;13.736868454175216;42.68772253942975
46382;BME280;66809;52.974;-2.514;2023-07-16T02:39:44;992.3746406076641;;;13.740842767895836;42.70302320240196
46382;BME280;66809;52.974;-2.514;2023-07-16T02:41:42;992.4071836807854;;;13.746800036542945;42.702442551291725
46382;BME280;66809;52.974;-2.514;2023-07-16T02:43:41;992.4379950269462;;;13.751270087790287;42.686764169852715
46382;BME280;66809;52.974;-2.514;2023-07-16T02:45:42;992.4703723524883;;;13.740981664013594;42.68409878818804
46382;BME280;66809;52.974;-2.514;2023-07-16T02:47:41;992.5034764766772;;;13.741418586517245;42.68666495100576
46382;BME280;66809;52.974;-2.514;2023-07-16T02:49:42;992.5347696586946;;;13.74972405403215;42.68873515518021
46382;BME280;66809;52.974;-2.514;2023-07-16T02:51:42;992.568010189071;;;13.75168797215352;42.70353431145706
46382;BME280;66809;52.974;-2.514;2023-07-16T02:53:41;992.6004328203176;;;13.742456010134852;42.71181851408322
46382;BME280;66809;52.974;-2.514;2023-07-16T02:55:42;992.6316150395785;;;13.74006133733201;42.71734130772442
46382;BME280;66809;52.974;-2.514;2023-07-16T02:57:42;992.6626547697612;;;13.73827163413199;42.714574911991384
46382;BME280;66809;52.974;-2.514;2023-07-16T02:59:42;992.694454654223;;;13.733020158277606;42.72561983359129
46382;BME280;66809;52.974;-2.514;2023-07-16T03:01:41;992.7260547580579;;;13.731446681345005;42.736664018230286
46382;BME280;66809;52.974;-2.514;2023-07-16T03:03:42;992.7598308133428;;;13.727060648046745;42.7540264138759
46382;BME280;66809;52.974;-2.514;2023-07-16T03:05:42;992.7910470654858;;;13.726069169363267;42.759945827894896
46382;BME280;66809;52.974;-2.514;2023-07-16T03:07:41;992.8235992843915;;;13.732881251444015;42.77041100390579
46382;BME280;66809;52.974;-2.514;2023-07-16T03:09:42;992.8554997160326;;;13.737250480772108;42.76814629338658
46382;BME280;66809;52.974;-2.514;2023-07-16T03:11:42;992.8885852164028;;;13.747543375209402;42.7673700769394
46382;BME280;66809;52.974;-2.514;2023-07-16T03:13:41;992.9203876682657;;;13.758239578667157;42.7568279861966
46382;BME280;66809;52.974;-2.514;2023-07-16T03:15:42;992.9526291455134;;;13.75574854230294;42.754570280188055
46382;BME280;66809;52.974;-2.514;2023-07-16T03:17:41;992.9843047227948;;;13.763403087816029;42.75320376006177
46382;BME280;66809;52.974;-2.514;2023-07-16T03:19:42;993.0147573816213;;;13.770001168442294;42.74010124644287
46382;BME280;66809;52.974;-2.514;2023-07-16T03:21:42;993.0455838873837;;;13.778882460603898;42.73192543798924
46382;BME280;66809;52.974;-2.514;2023-07-16T03:23:41;993.07705319327;;;13.783472379781719;42.722862612586404
46382;BME280;66809;52.974;-2.514;2023-07-16T03:25:42;993.1092721972408;;;13.789925390488722;42.7150792940328
46382;BME280;66809;52.974;-2.514;2023-07-16T03:27:41;993.1420426624792;;;13.790364543835398;42.70166929642686
46382;BME280;66809;52.974;-2.514;2023-07-16T03:29:42;993.1732721393672;;;13.79062724903762;42.68391819025017
46382;BME280;66809;52.974;-2.514;2023-07-16T03:31:42;993.2042962390146;;;13.79129103539619;42.6692167241964
46382;BME280;66809;52.974;-2.514;2023-07-16T03:33:41;993.2350760946173;;;13.790534823006984;42.67750464598268
46382;BME280;66809;52.974;-2.514;2023-07-16T03:35:42;993.2654301096718;;;13.794744404665131;42.6709993610573
46382;BME280;66809;52.974;-2.514;2023-07-16T03:37:41;993.2973424726586;;;13.804161217126584;42.65650189950312
46382;BME280;66809;52.974;-2.514;2023-07-16T03:39:42;993.3297995552997;;;13.806413049730374;42.62965975472726
46382;BME280;66809;52.974;-2.514;2023-07-16T03:41:41;993.3615078985227;;;13.806639913093056;42.618508898743585
46382;BME280;66809;52.974;-2.514;2023-07-16T03:43:42;993.3950142485462;;;13.811561462521395;42.6174238220034
46382;BME280;66809;52.974;-2.514;2023-07-16T03:45:42;993.4278278356644;;;13.81572062927071;42.60322146747409
46382;BME280;66809;52.974;-2.514;2023-07-16T03:47:42;993.4608940320231;;;13.822240863219283;42.58931585436552
46382;BME280;66809;52.974;-2.514;2023-07-16T03:49:42;993.4950626628305;;;13.828353866714663;42.566726650931955
46382;BME280;66809;52.974;-2.514;2023-07-16T03:51:41;993.5282703863533;;;13.842858612049314;42.524584155854214
46382;BME280;66809;52.974;-2.514;2023-07-16T03:53:42;993.5615383548418;;;13.865601599800291;42.49152264455438
46382;BME280;66809;52.974;-2.514;2023-07-16T03:55:41;993.5948907132912;;;13.879373085892244;42.458462597938514
46382;BME280;66809;52.974;-2.514;2023-07-16T03:57:42;993.6286788491465;;;13.879039227397142;42.43556699586836
46382;BME280;66809;52.974;-2.514;2023-07-16T03:59:42;993.661622024651;;;13.892800064879737;42.414851796956036
46382;BME280;66809;52.974;-2.514;2023-07-16T04:01:42;993.6941321786952;;;13.905622079465765;42.38564592118576
46382;BME280;66809;52.974;-2.514;2023-07-16T04:03:42;993.7258010121956;;;13.917486225013912;42.349234540844115
46382;BME280;66809;52.974;-2.514;2023-07-16T04:05:41;993.7577042363306;;;13.93477831624415;42.31094075918871
46382;BME280;66809;52.974;-2.514;2023-07-16T04:07:42;993.7897304240457;;;13.945701406834186;42.26522932633078
46382;BME280;66809;52.974;-2.514;2023-07-16T04:09:41;993.8218196520621;;;13.950803231684812;42.24074747328983
46382;BME280;66809;52.974;-2.514;2023-07-16T04:11:42;993.8534833899016;;;13.951647303805233;42.20569223253188
46382;BME280;66809;52.974;-2.514;2023-07-16T04:13:42;993.885429937329;;;13.956692570197417;42.16816932214064
46382;BME280;66809;52.974;-2.514;2023-07-16T04:15:41;993.9167647244884;;;13.968753833074004;42.12265182585276
46382;BME280;66809;52.974;-2.514;2023-07-16T04:17:42;993.9470366080963;;;13.989467312885449;42.06834398961579
46382;BME280;66809;52.974;-2.514;2023-07-16T04:19:41;993.9776191223397;;;13.996318442779751;42.01718506339707
46382;BME280;66809;52.974;-2.514;2023-07-16T04:21:42;994.0097491020431;;;14.007331675971413;41.97165520941091
46382;BME280;66809;52.974;-2.514;2023-07-16T04:23:42;994.0405691280417;;;14.025560321959508;41.92286120082502
46382;BME280;66809;52.974;-2.514;2023-07-16T04:25:41;994.0712740600435;;;14.04088108256236;41.857860202722776
46382;BME280;66809;52.974;-2.514;2023-07-16T04:27:42;994.10247281674;;;14.065083830026055;41.801354999500184
46382;BME280;66809;52.974;-2.514;2023-07-16T04:29:42;994.1343701135377;;;14.090286477377186;41.7432698071231
46382;BME280;66809;52.974;-2.514;2023-07-16T04:31:41;994.1674781350401;;;14.12182454859217;41.68300441744715
46382;BME280;66809;52.974;-2.514;2023-07-16T04:33:42;994.2008184955174;;;14.148807869456313;41.60178326664556
46382;BME280;66809;52.974;-2.514;2023-07-16T04:35:41;994.2340573528999;;;14.17879990627344;41.53320673928946
46382;BME280;66809;52.974;-2.514;2023-07-16T04:37:42;994.2685430717376;;;14.198105703699337;41.46848120482273
46382;BME280;66809;52.974;-2.514;2023-07-16T04:39:42;994.3026704243878;;;14.225408334019487;41.427644369510695
46382;BME280;66809;52.974;-2.514;2023-07-16T04:41:41;994.3357407946334;;;14.257475133354822;41.37042473586381
46382;BME280;66809;52.974;-2.514;2023-07-16T04:43:42;994.3687417380747;;;14.288796383000367;41.30005087034612
46382;BME280;66809;52.974;-2.514;2023-07-16T04:45:43;994.4020045682811;;;14.322770551999373;41.23253321679037
46382;BME280;66809;52.974;-2.514;2023-07-16T04:47:42;994.4347396087436;;;14.351703293328127;41.166489433953025
46382;BME280;66809;52.974;-2.514;2023-07-16T04:49:42;994.4664899303731;;;14.375970472058189;41.105253765694655
46382;BME280;66809;52.974;-2.514;2023-07-16T04:51:42;994.5001322921577;;;14.387342210636948;41.057258182168404
46382;BME280;66809;52.974;-2.514;2023-07-16T04:53:41;994.5323837440905;;;14.398915597398718;41.00669588334997
46382;BME280;66809;52.974;-2.514;2023-07-16T04:55:42;994.564686639729;;;14.416076578798933;40.95257128733773
46382;BME280;66809;52.974;-2.514;2023-07-16T04:57:42;994.5959364342203;;;14.447594992550014;40.90182799634986
46382;BME280;66809;52.974;-2.514;2023-07-16T04:59:41;994.62650251417;;;14.465724490150702;40.83972499660654
46382;BME280;66809;52.974;-2.514;2023-07-16T05:01:42;994.6580010275127;;;14.491196100847494;40.7861071147488
46382;BME280;66809;52.974;-2.514;2023-07-16T05:03:42;994.6896609879417;;;14.511465973916211;40.72733854271182
46382;BME280;66809;52.974;-2.514;2023-07-16T05:05:41;994.723647963989;;;14.519983156439363;40.677366650131475
46382;BME280;66809;52.974;-2.514;2023-07-16T05:07:42;994.7572873815569;;;14.531701651928696;40.64033664623568
46382;BME280;66809;52.974;-2.514;2023-07-16T05:09:42;994.7913843958;;;14.558490845906938;40.59422357379393
46382;BME280;66809;52.974;-2.514;2023-07-16T05:11:42;994.8254266929779;;;14.58179013742049;40.56412986585026
46382;BME280;66809;52.974;-2.514;2023-07-16T05:13:41;994.8602874018289;;;14.605635603755138;40.534822511006155
46382;BME280;66809;52.974;-2.514;2023-07-16T05:15:43;994.8951603983015;;;14.628212323439577;40.49471817402188
46382;BME280;66809;52.974;-2.514;2023-07-16T05:17:42;994.931774414845;;;14.643153513276333;40.44995579122826
46382;BME280;66809;52.974;-2.514;2023-07-16T05:19:42;994.9671865653912;;;14.66868011983056;40.410833421017315
46382;BME280;66809;52.974;-2.514;2023-07-16T05:21:41;995.0024374285543;;;14.683535004486812;40.36538721006142
46382;BME280;66809;52.974;-2.514;2023-07-16T05:23:42;995.0385618460892;;;14.698239271475597;40.32786701743469
46382;BME280;66809;52.974;-2.514;2023-07-16T05:25:46;995.0744612450807;;;14.71184282156785;40.29944440047476
46382;BME280;66809;52.974;-2.514;2023-07-16T05:27:42;995.1083407957801;;;14.729597189683172;40.2718042153199
46382;BME280;66809;52.974;-2.514;2023-07-16T05:29:41;995.1426732653523;;;14.732415959657242;40.23970688648201
46382;BME280;66809;52.974;-2.514;2023-07-16T05:31:42;995.1762654982768;;;14.737198629202185;40.20859785104275
46382;BME280;66809;52.974;-2.514;2023-07-16T05:33:42;995.2105693961514;;;14.748997971089038;40.188662821946416
46382;BME280;66809;52.974;-2.514;2023-07-16T05:35:42;995.2462504731242;;;14.76191423834293;40.16069247073792
46382;BME280;66809;52.974;-2.514;2023-07-16T05:37:41;995.2807229432053;;;14.765707120703949;40.12043382951564
46382;BME280;66809;52.974;-2.514;2023-07-16T05:39:42;995.3157910988571;;;14.77970182050131;40.07998018162203
46382;BME280;66809;52.974;-2.514;2023-07-16T05:41:43;995.3508211483115;;;14.791721948541634;40.035664916266214
46382;BME280;66809;52.974;-2.514;2023-07-16T05:43:41;995.3846763164454;;;14.806924323652742;40.003725170694246
46382;BME280;66809;52.974;-2.514;2023-07-16T05:45:42;995.4174616684602;;;14.821832613900085;39.96554225844657
46382;BME280;66809;52.974;-2.514;2023-07-16T05:47:41;995.4496475729426;;;14.832978892875058;39.93102253298333
46382;BME280;66809;52.974;-2.514;2023-07-16T05:49:41;995.4829079096191;;;14.85459846276466;39.89876861146117
46382;BME280;66809;52.974;-2.514;2023-07-16T05:51:42;995.5144722838255;;;14.881057855409155;39.87561850759227
46382;BME280;66809;52.974;-2.514;2023-07-16T05:53:41;995.5470768476897;;;14.907494345700252;39.85047031833493
46382;BME280;66809;52.974;-2.514;2023-07-16T05:55:42;995.5794435547291;;;14.924639405539988;39.80954986563244
46382;BME280;66809;52.974;-2.514;2023-07-16T05:57:42;995.6147596859277;;;14.946456850423704;39.757445444348356
46382;BME280;66809;52.974;-2.514;2023-07-16T05:59:41;995.6502485891508;;;14.972431208763263;39.70524310743824
46382;BME280;66809;52.974;-2.514;2023-07-16T06:01:42;995.6846465108956;;;14.989960474001503;39.66107870655339
46382;BME280;66809;52.974;-2.514;2023-07-16T06:03:42;995.7201934650483;;;15.019797677786455;39.6350372605408
46382;BME280;66809;52.974;-2.514;2023-07-16T06:05:42;995.7542170147432;;;15.050727206727773;39.596009891886624
46382;BME280;66809;52.974;-2.514;2023-07-16T06:07:42;995.7885537954813;;;15.083194397179055;39.55826741853236
46382;BME280;66809;52.974;-2.514;2023-07-16T06:09:41;995.8226237119247;;;15.104310950889424;39.52586483123592
46382;BME280;66809;52.974;-2.514;2023-07-16T06:11:42;995.8560834678756;;;15.129270355511636;39.481070370617246
46382;BME280;66809;52.974;-2.514;2023-07-16T06:13:42;995.8881653193694;;;15.152961003759925;39.42625661437367
46382;BME280;66809;52.974;-2.514;2023-07-16T06:15:41;995.9206729096052;;;15.18427940856263;39.389972531317134
46382;BME280;66809;52.974;-2.514;2023-07-16T06:17:42;995.9532452180315;;;15.214818708572922;39.370717092355925
46382;BME280;66809;52.974;-2.514;2023-07-16T06:19:43;995.9871159164961;;;15.245138973497111;39.346088195288004
46382;BME280;66809;52.974;-2.514;2023-07-16T06:21:41;996.0177706974134;;;15.274862081597782;39.30813643529154
46382;BME280;66809;52.974;-2.514;2023-07-16T06:23:42;996.0478583072621;;;15.306097059451812;39.2788069879582
46382;BME280;66809;52.974;-2.514;2023-07-16T06:25:42;996.0793502429119;;;15.353516460978785;39.244786236019074
46382;BME280;66809;52.974;-2.514;2023-07-16T06:27:41;996.1139975592346;;;15.389171260855038;39.199549689897516
46382;BME280;66809;52.974;-2.514;2023-07-16T06:29:42;996.1487469570837;;;15.440148215215165;39.11704678317093
46382;BME280;66809;52.974;-2.514;2023-07-16T06:31:42;996.1841568239691;;;15.4851029035887;39.04815041621272
46382;BME280;66809;52.974;-2.514;2023-07-16T06:33:42;996.2189812301393;;;15.526942622917689;38.99115366264121
46382;BME280;66809;52.974;-2.514;2023-07-16T06:35:44;996.251857363764;;;15.570805079202696;38.91129150595632
46382;BME280;66809;52.974;-2.514;2023-07-16T06:37:42;996.2830655511522;;;15.630463120474339;38.85425104866128
46382;BME280;66809;52.974;-2.514;2023-07-16T06:39:41;996.3139082828183;;;15.674661719674381;38.8061534162766
46382;BME280;66809;52.974;-2.514;2023-07-16T06:41:42;996.3434958522461;;;15.721708811448428;38.731188451044126
46382;BME280;66809;52.974;-2.514;2023-07-16T06:43:42;996.3742284252638;;;15.765296413889944;38.66576594068192
46382;BME280;66809;52.974;-2.514;2023-07-16T06:45:42;996.405493075945;;;15.813738353323924;38.62169529542991
46382;BME280;66809;52.974;-2.514;2023-07-16T06:47:41;996.4375272762388;;;15.857695677310598;38.57802864809617
46382;BME280;66809;52.974;-2.514;2023-07-16T06:49:42;996.4663897579288;;;15.883258424354857;38.51299098184719
46382;BME280;66809;52.974;-2.514;2023-07-16T06:51:42;996.4962105656302;;;15.924367300194247;38.45313657345114
46382;BME280;66809;52.974;-2.514;2023-07-16T06:53:41;996.5243429592682;;;15.957437297166784;38.381552163706644
46382;BME280;66809;52.974;-2.514;2023-07-16T06:55:42;996.5525469938426;;;16.00519924702744;38.337852228053166
46382;BME280;66809;52.974;-2.514;2023-07-16T06:57:42;996.5794545361048;;;16.049801311992802;38.29651962220064
46382;BME280;66809;52.974;-2.514;2023-07-16T06:59:41;996.6070612517356;;;16.0896438221235;38.24291615045938
46382;BME280;66809;52.974;-2.514;2023-07-16T07:01:42;996.6334954693187;;;16.119828057000433;38.166067550426355
46382;BME280;66809;52.974;-2.514;2023-07-16T07:03:41;996.6573517376124;;;16.1538331333056;38.08488180119592
46382;BME280;66809;52.974;-2.514;2023-07-16T07:05:42;996.6816875218971;;;16.18944312411;38.00563542605088
46382;BME280;66809;52.974;-2.514;2023-07-16T07:07:42;996.7055222135023;;;16.22752953179437;37.92372323096905
46382;BME280;66809;52.974;-2.514;2023-07-16T07:09:41;996.7287980763728;;;16.279139947564047;37.84491667674551
46382;BME280;66809;52.974;-2.514;2023-07-16T07:11:42;996.7528391331406;;;16.326980012612797;37.75044877233122
46382;BME280;66809;52.974;-2.514;2023-07-16T07:13:41;996.7768001049361;;;16.372190075262612;37.66392528991547